createdAt,value
2022-08-17T00:00:16.575Z,24.91
2022-08-17T00:05:49.421Z,24.88
2022-08-17T00:10:52.899Z,24.82
2022-08-17T00:15:59.931Z,24.75
2022-08-17T00:21:04.361Z,24.68
2022-08-17T00:26:14.297Z,24.68
2022-08-17T00:31:17.171Z,24.66
2022-08-17T00:36:19.259Z,24.63
2022-08-17T00:41:24.018Z,24.62
2022-08-17T00:46:30.278Z,24.61
2022-08-17T00:51:41.195Z,24.57
2022-08-17T00:56:47.856Z,24.51
2022-08-17T01:01:51.046Z,24.50
2022-08-17T01:06:53.632Z,24.49
2022-08-17T01:11:55.483Z,24.45
2022-08-17T01:16:57.720Z,24.40
2022-08-17T01:22:11.693Z,24.34
2022-08-17T01:27:15.884Z,24.27
2022-08-17T01:32:20.612Z,24.22
2022-08-17T01:37:34.622Z,24.14
2022-08-17T01:42:42.298Z,24.08
2022-08-17T01:47:44.306Z,24.03
2022-08-17T01:52:51.675Z,23.98
2022-08-17T01:57:53.980Z,23.96
2022-08-17T02:02:56.045Z,23.92
2022-08-17T02:08:00.402Z,23.88
2022-08-17T02:13:04.736Z,23.83
2022-08-17T02:18:08.353Z,23.79
2022-08-17T02:23:13.103Z,23.73
2022-08-17T02:28:16.149Z,23.66
2022-08-17T02:33:18.159Z,23.57
2022-08-17T02:38:22.373Z,23.49
2022-08-17T02:43:25.530Z,23.43
2022-08-17T02:48:30.796Z,23.40
2022-08-17T02:53:36.197Z,23.41
2022-08-17T02:58:38.173Z,23.40
2022-08-17T03:03:40.535Z,23.40
2022-08-17T03:08:42.442Z,23.37
2022-08-17T03:13:44.886Z,23.32
2022-08-17T03:18:46.773Z,23.26
2022-08-17T03:23:48.686Z,23.22
2022-08-17T03:28:56.913Z,23.17
2022-08-17T03:34:05.288Z,23.17
2022-08-17T03:39:07.213Z,23.17
2022-08-17T03:44:09.196Z,23.14
2022-08-17T03:49:29.508Z,23.14
2022-08-17T03:54:49.820Z,23.15
2022-08-17T03:59:52.991Z,23.12
2022-08-17T04:04:56.829Z,23.06
2022-08-17T04:10:00.027Z,23.01
2022-08-17T04:15:01.856Z,22.96
2022-08-17T04:20:04.502Z,22.92
2022-08-17T04:25:15.253Z,22.87
2022-08-17T04:30:17.458Z,22.86
2022-08-17T04:35:22.029Z,22.86
2022-08-17T04:40:43.968Z,22.87
2022-08-17T04:45:54.939Z,22.92
2022-08-17T04:51:00.098Z,22.94
2022-08-17T04:56:02.382Z,22.97
2022-08-17T05:01:05.935Z,23.03
2022-08-17T05:06:09.183Z,23.12
2022-08-17T05:11:11.219Z,23.20
2022-08-17T05:16:13.231Z,23.29
2022-08-17T05:21:16.448Z,23.38
2022-08-17T05:26:25.670Z,23.48
2022-08-17T05:31:30.933Z,23.55
2022-08-17T05:36:42.576Z,23.65
2022-08-17T05:41:48.453Z,23.74
2022-08-17T05:46:54.291Z,23.85
2022-08-17T05:52:18.825Z,23.97
2022-08-17T05:57:47.488Z,24.09
2022-08-17T06:03:25.001Z,24.22
2022-08-17T06:08:40.257Z,24.36
2022-08-17T06:14:09.554Z,24.53
2022-08-17T06:19:21.785Z,24.69
2022-08-17T06:24:42.176Z,24.85
2022-08-17T06:30:02.288Z,24.96
2022-08-17T06:35:07.686Z,25.08
2022-08-17T06:40:22.267Z,25.24
2022-08-17T06:45:35.143Z,25.40
2022-08-17T06:50:44.254Z,25.55
2022-08-17T06:56:06.391Z,25.68
2022-08-17T07:01:13.210Z,25.79
2022-08-17T07:06:20.226Z,25.89
2022-08-17T07:11:48.949Z,26.02
2022-08-17T07:16:53.809Z,26.17
2022-08-17T07:22:14.217Z,26.31
2022-08-17T07:27:31.323Z,26.42
2022-08-17T07:32:49.079Z,26.54
2022-08-17T07:38:26.154Z,26.64
2022-08-17T07:43:53.160Z,26.79
2022-08-17T07:49:16.134Z,26.92
2022-08-17T07:54:36.845Z,27.09
2022-08-17T08:00:04.104Z,27.20
2022-08-17T08:05:46.680Z,27.35
2022-08-17T08:11:09.862Z,27.45
2022-08-17T08:16:32.145Z,27.62
2022-08-17T08:22:00.405Z,27.70
2022-08-17T08:27:27.284Z,27.85
2022-08-17T08:32:50.225Z,27.98
2022-08-17T08:37:59.942Z,28.03
2022-08-17T08:43:29.698Z,28.17
2022-08-17T08:48:53.187Z,28.26
2022-08-17T08:54:26.873Z,28.38
2022-08-17T08:59:41.844Z,28.45
2022-08-17T09:05:15.068Z,28.58
2022-08-17T09:10:30.248Z,28.76
2022-08-17T09:15:45.308Z,28.98
2022-08-17T09:20:55.734Z,29.18
2022-08-17T09:26:16.396Z,29.25
2022-08-17T09:31:24.108Z,29.25
2022-08-17T09:36:33.124Z,29.08
2022-08-17T09:41:52.940Z,29.01
2022-08-17T09:47:05.816Z,29.05
2022-08-17T09:52:18.172Z,29.23
2022-08-17T09:57:32.384Z,29.42
2022-08-17T10:03:05.723Z,29.57
2022-08-17T10:08:10.365Z,29.75
2022-08-17T10:13:12.087Z,29.81
2022-08-17T10:18:33.263Z,30.00
2022-08-17T10:23:54.179Z,30.07
2022-08-17T10:28:58.776Z,29.93
2022-08-17T10:34:25.318Z,29.74
2022-08-17T10:40:04.008Z,29.96
2022-08-17T10:45:26.343Z,30.33
2022-08-17T10:50:49.868Z,30.45
2022-08-17T10:56:11.806Z,30.46
2022-08-17T11:01:13.865Z,30.18
2022-08-17T11:06:25.578Z,30.16
2022-08-17T11:11:50.374Z,30.26
2022-08-17T11:17:26.097Z,30.49
2022-08-17T11:23:01.378Z,30.68
2022-08-17T11:28:52.547Z,30.89
2022-08-17T11:34:08.316Z,31.06
2022-08-17T11:39:30.786Z,31.18
2022-08-17T11:44:38.194Z,31.25
2022-08-17T11:50:27.584Z,31.32
2022-08-17T11:55:39.565Z,31.23
2022-08-17T12:00:46.547Z,30.99
2022-08-17T12:05:50.157Z,30.75
2022-08-17T12:10:59.776Z,30.49
2022-08-17T12:16:02.661Z,30.29
2022-08-17T12:21:34.827Z,30.34
2022-08-17T12:26:37.330Z,30.35
2022-08-17T12:31:49.101Z,30.34
2022-08-17T12:37:06.934Z,30.44
2022-08-17T12:42:26.886Z,30.72
2022-08-17T12:47:32.029Z,30.95
2022-08-17T12:52:39.682Z,31.07
2022-08-17T12:57:47.971Z,31.01
2022-08-17T13:02:52.333Z,30.83
2022-08-17T13:07:56.267Z,30.67
2022-08-17T13:13:04.020Z,30.68
2022-08-17T13:18:29.752Z,30.59
2022-08-17T13:23:32.547Z,30.51
2022-08-17T13:28:37.694Z,30.41
2022-08-17T13:33:44.815Z,30.43
2022-08-17T13:38:50.514Z,30.57
2022-08-17T13:43:53.075Z,30.75
2022-08-17T13:49:05.958Z,30.87
2022-08-17T13:54:30.765Z,30.87
2022-08-17T13:59:52.512Z,30.76
2022-08-17T14:04:54.993Z,30.70
2022-08-17T14:10:05.861Z,30.75
2022-08-17T14:15:09.001Z,30.78
2022-08-17T14:20:13.560Z,30.76
2022-08-17T14:25:23.850Z,30.75
2022-08-17T14:30:28.933Z,30.74
2022-08-17T14:35:32.496Z,30.71
2022-08-17T14:40:35.555Z,30.66
2022-08-17T14:45:37.634Z,30.58
2022-08-17T14:50:42.140Z,30.57
2022-08-17T14:55:47.124Z,30.68
2022-08-17T15:00:51.454Z,30.80
2022-08-17T15:05:54.014Z,30.75
2022-08-17T15:10:56.086Z,30.70
2022-08-17T15:16:00.317Z,30.68
2022-08-17T15:21:07.613Z,30.66
2022-08-17T15:26:09.633Z,30.65
2022-08-17T15:31:11.615Z,30.77
2022-08-17T15:36:13.696Z,30.83
2022-08-17T15:41:18.648Z,30.89
2022-08-17T15:46:23.874Z,30.93
2022-08-17T15:51:32.703Z,30.90
2022-08-17T15:56:34.774Z,30.87
2022-08-17T16:03:01.315Z,30.84
2022-08-17T16:07:00.230Z,30.75
2022-08-17T16:12:13.397Z,30.66
2022-08-17T16:17:39.549Z,30.57
2022-08-17T16:22:43.739Z,30.51
2022-08-17T16:27:48.538Z,30.45
2022-08-17T16:32:53.253Z,30.39
2022-08-17T16:37:59.011Z,30.33
2022-08-17T16:43:01.787Z,30.26
2022-08-17T16:48:04.563Z,30.17
2022-08-17T16:53:17.730Z,30.08
2022-08-17T16:58:20.163Z,29.99
2022-08-17T17:03:26.401Z,29.87
2022-08-17T17:08:44.698Z,29.76
2022-08-17T17:13:58.009Z,29.64
2022-08-17T17:19:09.211Z,29.55
2022-08-17T17:24:28.915Z,29.42
2022-08-17T17:29:47.710Z,29.28
2022-08-17T17:34:56.412Z,29.14
2022-08-17T17:40:05.487Z,29.06
2022-08-17T17:45:12.686Z,28.94
2022-08-17T17:50:18.061Z,28.81
2022-08-17T17:55:25.910Z,28.69
2022-08-17T18:00:49.704Z,28.60
2022-08-17T18:06:45.997Z,28.52
2022-08-17T18:12:06.966Z,28.41
2022-08-17T18:17:09.235Z,28.29
2022-08-17T18:22:15.863Z,28.20
2022-08-17T18:27:32.976Z,28.15
2022-08-17T18:32:36.489Z,28.07
2022-08-17T18:37:46.664Z,28.00
2022-08-17T18:43:00.677Z,27.92
2022-08-17T18:48:03.603Z,27.82
2022-08-17T18:53:38.697Z,27.74
2022-08-17T18:58:40.868Z,27.65
2022-08-17T19:03:46.196Z,27.58
2022-08-17T19:08:48.147Z,27.54
2022-08-17T19:13:55.611Z,27.49
2022-08-17T19:19:16.362Z,27.41
2022-08-17T19:24:21.817Z,27.34
2022-08-17T19:29:36.061Z,27.28
2022-08-17T19:34:44.785Z,27.19
2022-08-17T19:39:55.779Z,27.15
2022-08-17T19:45:09.786Z,27.13
2022-08-17T19:50:16.563Z,27.07
2022-08-17T19:55:33.769Z,27.03
2022-08-17T20:00:47.317Z,27.00
2022-08-17T20:06:12.679Z,26.94
2022-08-17T20:11:21.465Z,26.87
2022-08-17T20:16:24.850Z,26.79
2022-08-17T20:21:41.776Z,26.73
2022-08-17T20:27:08.573Z,26.68
2022-08-17T20:32:23.510Z,26.65
2022-08-17T20:37:30.654Z,26.61
2022-08-17T20:42:34.092Z,26.59
2022-08-17T20:48:00.777Z,26.51
2022-08-17T20:53:09.757Z,26.43
2022-08-17T20:58:30.003Z,26.36
2022-08-17T21:03:49.216Z,26.27
2022-08-17T21:09:12.772Z,26.24
2022-08-17T21:14:41.965Z,26.19
2022-08-17T21:20:24.033Z,26.13
2022-08-17T21:25:56.293Z,26.10
2022-08-17T21:31:09.190Z,26.03
2022-08-17T21:36:17.392Z,25.97
2022-08-17T21:41:33.971Z,25.93
2022-08-17T21:46:39.709Z,25.90
2022-08-17T21:51:46.277Z,25.87
2022-08-17T21:56:49.097Z,25.83
2022-08-17T22:01:56.377Z,25.79
2022-08-17T22:07:05.314Z,25.74
2022-08-17T22:12:15.512Z,25.71
2022-08-17T22:17:26.713Z,25.68
2022-08-17T22:23:09.063Z,25.66
2022-08-17T22:28:12.426Z,25.60
2022-08-17T22:33:33.346Z,25.56
2022-08-17T22:38:35.689Z,25.50
2022-08-17T22:43:39.112Z,25.46
2022-08-17T22:48:53.788Z,25.40
2022-08-17T22:54:18.832Z,25.36
2022-08-17T23:00:02.709Z,25.31
2022-08-17T23:05:10.958Z,25.25
2022-08-17T23:10:14.082Z,25.21
2022-08-17T23:15:19.212Z,25.18
2022-08-17T23:20:21.059Z,25.14
2022-08-17T23:25:31.546Z,25.09
2022-08-17T23:30:42.924Z,25.04
2022-08-17T23:35:45.450Z,25.00
2022-08-17T23:40:47.263Z,25.00
2022-08-17T23:45:49.058Z,24.98
2022-08-17T23:50:53.010Z,24.95
2022-08-17T23:56:07.584Z,24.94
